sensor_id;sensor_type;location;lat;lon;timestamp;P1;durP1;ratioP1;P2;durP2;ratioP2
35120;SDS011;21297;52.008;4.576;2023-12-04T00:01:08;29.65;;;13.65;;
35120;SDS011;21297;52.008;4.576;2023-12-04T00:03:54;26.55;;;12.40;;
35120;SDS011;21297;52.008;4.576;2023-12-04T00:06:41;25.38;;;12.77;;
35120;SDS011;21297;52.008;4.576;2023-12-04T00:09:27;27.60;;;13.43;;
35120;SDS011;21297;52.008;4.576;2023-12-04T00:12:13;24.40;;;12.27;;
35120;SDS011;21297;52.008;4.576;2023-12-04T00:14:59;25.27;;;11.88;;
35120;SDS011;21297;52.008;4.576;2023-12-04T00:17:44;25.73;;;12.10;;
35120;SDS011;21297;52.008;4.576;2023-12-04T00:20:30;27.40;;;13.20;;
35120;SDS011;21297;52.008;4.576;2023-12-04T00:23:16;24.77;;;11.95;;
35120;SDS011;21297;52.008;4.576;2023-12-04T00:26:01;27.92;;;12.80;;
35120;SDS011;21297;52.008;4.576;2023-12-04T00:28:48;24.55;;;11.85;;
35120;SDS011;21297;52.008;4.576;2023-12-04T00:31:33;26.55;;;12.70;;
35120;SDS011;21297;52.008;4.576;2023-12-04T00:34:19;23.73;;;12.27;;
35120;SDS011;21297;52.008;4.576;2023-12-04T00:37:04;24.88;;;11.75;;
35120;SDS011;21297;52.008;4.576;2023-12-04T00:39:50;24.75;;;11.38;;
35120;SDS011;21297;52.008;4.576;2023-12-04T00:42:36;22.88;;;11.00;;
35120;SDS011;21297;52.008;4.576;2023-12-04T00:45:21;28.58;;;12.77;;
35120;SDS011;21297;52.008;4.576;2023-12-04T00:48:07;25.60;;;12.05;;
35120;SDS011;21297;52.008;4.576;2023-12-04T00:50:54;24.17;;;11.95;;
35120;SDS011;21297;52.008;4.576;2023-12-04T00:53:40;23.95;;;11.40;;
35120;SDS011;21297;52.008;4.576;2023-12-04T00:56:25;23.20;;;11.60;;
35120;SDS011;21297;52.008;4.576;2023-12-04T00:59:11;27.27;;;13.75;;
35120;SDS011;21297;52.008;4.576;2023-12-04T01:01:56;22.52;;;11.48;;
35120;SDS011;21297;52.008;4.576;2023-12-04T01:04:42;22.08;;;11.60;;
35120;SDS011;21297;52.008;4.576;2023-12-04T01:07:28;24.55;;;11.20;;
35120;SDS011;21297;52.008;4.576;2023-12-04T01:10:14;25.65;;;12.40;;
35120;SDS011;21297;52.008;4.576;2023-12-04T01:13:00;23.73;;;11.10;;
35120;SDS011;21297;52.008;4.576;2023-12-04T01:15:46;25.75;;;12.00;;
35120;SDS011;21297;52.008;4.576;2023-12-04T01:18:33;22.02;;;10.98;;
35120;SDS011;21297;52.008;4.576;2023-12-04T01:21:19;27.48;;;12.27;;
35120;SDS011;21297;52.008;4.576;2023-12-04T01:24:05;26.02;;;11.85;;
35120;SDS011;21297;52.008;4.576;2023-12-04T01:26:51;32.80;;;14.82;;
35120;SDS011;21297;52.008;4.576;2023-12-04T01:29:37;24.40;;;12.30;;
35120;SDS011;21297;52.008;4.576;2023-12-04T01:32:23;29.80;;;13.63;;
35120;SDS011;21297;52.008;4.576;2023-12-04T01:35:08;24.33;;;12.00;;
35120;SDS011;21297;52.008;4.576;2023-12-04T01:37:54;25.58;;;11.95;;
35120;SDS011;21297;52.008;4.576;2023-12-04T01:40:39;24.85;;;11.55;;
35120;SDS011;21297;52.008;4.576;2023-12-04T01:43:25;24.70;;;12.00;;
35120;SDS011;21297;52.008;4.576;2023-12-04T01:46:11;23.92;;;11.00;;
35120;SDS011;21297;52.008;4.576;2023-12-04T01:48:58;26.15;;;12.77;;
35120;SDS011;21297;52.008;4.576;2023-12-04T01:51:45;22.95;;;11.82;;
35120;SDS011;21297;52.008;4.576;2023-12-04T01:54:31;21.25;;;10.82;;
35120;SDS011;21297;52.008;4.576;2023-12-04T01:57:18;22.98;;;11.10;;
35120;SDS011;21297;52.008;4.576;2023-12-04T02:00:05;24.05;;;12.25;;
35120;SDS011;21297;52.008;4.576;2023-12-04T02:02:56;23.30;;;11.57;;
35120;SDS011;21297;52.008;4.576;2023-12-04T02:05:47;22.92;;;12.38;;
35120;SDS011;21297;52.008;4.576;2023-12-04T02:08:33;21.87;;;11.50;;
35120;SDS011;21297;52.008;4.576;2023-12-04T02:11:19;22.80;;;10.88;;
35120;SDS011;21297;52.008;4.576;2023-12-04T02:14:04;23.10;;;10.43;;
35120;SDS011;21297;52.008;4.576;2023-12-04T02:16:50;28.17;;;11.50;;
35120;SDS011;21297;52.008;4.576;2023-12-04T02:19:39;20.38;;;10.38;;
35120;SDS011;21297;52.008;4.576;2023-12-04T02:22:25;24.02;;;11.05;;
35120;SDS011;21297;52.008;4.576;2023-12-04T02:25:11;22.33;;;10.90;;
35120;SDS011;21297;52.008;4.576;2023-12-04T02:28:00;25.75;;;11.90;;
35120;SDS011;21297;52.008;4.576;2023-12-04T02:30:50;22.98;;;11.20;;
35120;SDS011;21297;52.008;4.576;2023-12-04T02:33:36;21.95;;;11.30;;
35120;SDS011;21297;52.008;4.576;2023-12-04T02:36:23;22.75;;;11.02;;
35120;SDS011;21297;52.008;4.576;2023-12-04T02:39:11;20.55;;;10.32;;
35120;SDS011;21297;52.008;4.576;2023-12-04T02:41:57;23.42;;;11.48;;
35120;SDS011;21297;52.008;4.576;2023-12-04T02:44:42;23.67;;;11.25;;
35120;SDS011;21297;52.008;4.576;2023-12-04T02:47:28;21.30;;;10.20;;
35120;SDS011;21297;52.008;4.576;2023-12-04T02:50:13;25.58;;;11.10;;
35120;SDS011;21297;52.008;4.576;2023-12-04T02:52:59;23.38;;;11.20;;
35120;SDS011;21297;52.008;4.576;2023-12-04T02:55:45;21.58;;;10.98;;
35120;SDS011;21297;52.008;4.576;2023-12-04T02:58:30;20.17;;;9.50;;
35120;SDS011;21297;52.008;4.576;2023-12-04T03:01:19;22.48;;;11.25;;
35120;SDS011;21297;52.008;4.576;2023-12-04T03:04:05;23.33;;;10.85;;
35120;SDS011;21297;52.008;4.576;2023-12-04T03:06:50;21.45;;;9.73;;
35120;SDS011;21297;52.008;4.576;2023-12-04T03:09:36;20.77;;;10.45;;
35120;SDS011;21297;52.008;4.576;2023-12-04T03:12:22;26.33;;;11.77;;
35120;SDS011;21297;52.008;4.576;2023-12-04T03:15:07;21.42;;;10.15;;
35120;SDS011;21297;52.008;4.576;2023-12-04T03:17:53;20.52;;;9.85;;
35120;SDS011;21297;52.008;4.576;2023-12-04T03:20:39;21.02;;;10.65;;
35120;SDS011;21297;52.008;4.576;2023-12-04T03:23:25;21.95;;;10.60;;
35120;SDS011;21297;52.008;4.576;2023-12-04T03:26:10;20.85;;;9.93;;
35120;SDS011;21297;52.008;4.576;2023-12-04T03:28:56;19.88;;;9.82;;
35120;SDS011;21297;52.008;4.576;2023-12-04T03:31:42;20.08;;;9.52;;
35120;SDS011;21297;52.008;4.576;2023-12-04T03:34:28;20.02;;;9.77;;
35120;SDS011;21297;52.008;4.576;2023-12-04T03:37:13;20.67;;;9.80;;
35120;SDS011;21297;52.008;4.576;2023-12-04T03:39:59;23.58;;;9.43;;
35120;SDS011;21297;52.008;4.576;2023-12-04T03:42:45;18.38;;;9.63;;
35120;SDS011;21297;52.008;4.576;2023-12-04T03:45:30;18.73;;;9.60;;
35120;SDS011;21297;52.008;4.576;2023-12-04T03:48:16;19.63;;;9.30;;
35120;SDS011;21297;52.008;4.576;2023-12-04T03:51:01;20.42;;;9.95;;
35120;SDS011;21297;52.008;4.576;2023-12-04T03:53:47;21.95;;;8.98;;
35120;SDS011;21297;52.008;4.576;2023-12-04T03:56:33;19.38;;;9.13;;
35120;SDS011;21297;52.008;4.576;2023-12-04T03:59:19;18.88;;;8.60;;
35120;SDS011;21297;52.008;4.576;2023-12-04T04:02:04;17.77;;;9.13;;
35120;SDS011;21297;52.008;4.576;2023-12-04T04:04:51;18.73;;;8.50;;
35120;SDS011;21297;52.008;4.576;2023-12-04T04:07:36;20.92;;;9.40;;
35120;SDS011;21297;52.008;4.576;2023-12-04T04:10:22;21.00;;;10.35;;
35120;SDS011;21297;52.008;4.576;2023-12-04T04:13:08;19.35;;;8.90;;
35120;SDS011;21297;52.008;4.576;2023-12-04T04:15:53;19.98;;;9.63;;
35120;SDS011;21297;52.008;4.576;2023-12-04T04:18:39;18.55;;;8.90;;
35120;SDS011;21297;52.008;4.576;2023-12-04T04:21:25;21.42;;;9.88;;
35120;SDS011;21297;52.008;4.576;2023-12-04T04:24:10;21.20;;;9.98;;
35120;SDS011;21297;52.008;4.576;2023-12-04T04:26:56;22.45;;;9.65;;
35120;SDS011;21297;52.008;4.576;2023-12-04T04:29:42;21.48;;;10.02;;
35120;SDS011;21297;52.008;4.576;2023-12-04T04:32:27;24.25;;;10.05;;
35120;SDS011;21297;52.008;4.576;2023-12-04T04:35:13;20.88;;;10.10;;
35120;SDS011;21297;52.008;4.576;2023-12-04T04:37:59;20.85;;;9.75;;
35120;SDS011;21297;52.008;4.576;2023-12-04T04:40:44;22.30;;;10.52;;
35120;SDS011;21297;52.008;4.576;2023-12-04T04:43:30;21.70;;;10.13;;
35120;SDS011;21297;52.008;4.576;2023-12-04T04:46:16;22.65;;;10.75;;
35120;SDS011;21297;52.008;4.576;2023-12-04T04:49:02;21.92;;;10.35;;
35120;SDS011;21297;52.008;4.576;2023-12-04T04:51:51;20.13;;;9.55;;
35120;SDS011;21297;52.008;4.576;2023-12-04T04:54:37;25.55;;;10.70;;
35120;SDS011;21297;52.008;4.576;2023-12-04T04:57:22;21.45;;;9.93;;
35120;SDS011;21297;52.008;4.576;2023-12-04T05:00:08;19.02;;;9.48;;
35120;SDS011;21297;52.008;4.576;2023-12-04T05:02:54;22.85;;;9.70;;
35120;SDS011;21297;52.008;4.576;2023-12-04T05:05:40;19.67;;;10.00;;
35120;SDS011;21297;52.008;4.576;2023-12-04T05:08:25;22.50;;;10.25;;
35120;SDS011;21297;52.008;4.576;2023-12-04T05:11:14;20.73;;;9.80;;
35120;SDS011;21297;52.008;4.576;2023-12-04T05:14:00;20.35;;;9.48;;
35120;SDS011;21297;52.008;4.576;2023-12-04T05:16:45;20.92;;;9.98;;
35120;SDS011;21297;52.008;4.576;2023-12-04T05:19:31;20.80;;;8.93;;
35120;SDS011;21297;52.008;4.576;2023-12-04T05:22:17;19.65;;;9.25;;
35120;SDS011;21297;52.008;4.576;2023-12-04T05:25:02;19.10;;;8.95;;
35120;SDS011;21297;52.008;4.576;2023-12-04T05:27:48;23.85;;;10.10;;
35120;SDS011;21297;52.008;4.576;2023-12-04T05:30:34;21.30;;;10.32;;
35120;SDS011;21297;52.008;4.576;2023-12-04T05:33:20;21.17;;;10.70;;
35120;SDS011;21297;52.008;4.576;2023-12-04T05:36:05;21.67;;;9.80;;
35120;SDS011;21297;52.008;4.576;2023-12-04T05:38:52;26.42;;;10.70;;
35120;SDS011;21297;52.008;4.576;2023-12-04T05:41:39;21.25;;;9.43;;
35120;SDS011;21297;52.008;4.576;2023-12-04T05:44:24;22.65;;;9.88;;
35120;SDS011;21297;52.008;4.576;2023-12-04T05:47:10;21.10;;;9.77;;
35120;SDS011;21297;52.008;4.576;2023-12-04T05:49:55;22.30;;;9.85;;
35120;SDS011;21297;52.008;4.576;2023-12-04T05:52:41;17.70;;;8.68;;
35120;SDS011;21297;52.008;4.576;2023-12-04T05:55:27;23.77;;;10.65;;
35120;SDS011;21297;52.008;4.576;2023-12-04T05:58:12;23.15;;;10.90;;
35120;SDS011;21297;52.008;4.576;2023-12-04T06:00:58;21.27;;;10.63;;
35120;SDS011;21297;52.008;4.576;2023-12-04T06:03:44;21.65;;;10.13;;
35120;SDS011;21297;52.008;4.576;2023-12-04T06:06:29;19.30;;;9.35;;
35120;SDS011;21297;52.008;4.576;2023-12-04T06:09:15;21.50;;;10.10;;
35120;SDS011;21297;52.008;4.576;2023-12-04T06:12:02;20.73;;;9.63;;
35120;SDS011;21297;52.008;4.576;2023-12-04T06:14:53;19.63;;;9.60;;
35120;SDS011;21297;52.008;4.576;2023-12-04T06:17:38;18.52;;;9.50;;
35120;SDS011;21297;52.008;4.576;2023-12-04T06:20:24;18.85;;;9.30;;
35120;SDS011;21297;52.008;4.576;2023-12-04T06:23:10;17.33;;;9.30;;
35120;SDS011;21297;52.008;4.576;2023-12-04T06:25:56;18.05;;;8.68;;
35120;SDS011;21297;52.008;4.576;2023-12-04T06:28:42;19.17;;;8.80;;
35120;SDS011;21297;52.008;4.576;2023-12-04T06:31:28;17.65;;;9.45;;
35120;SDS011;21297;52.008;4.576;2023-12-04T06:34:14;20.58;;;9.50;;
35120;SDS011;21297;52.008;4.576;2023-12-04T06:37:01;20.45;;;9.15;;
35120;SDS011;21297;52.008;4.576;2023-12-04T06:39:47;19.05;;;9.45;;
35120;SDS011;21297;52.008;4.576;2023-12-04T06:42:35;16.48;;;8.20;;
35120;SDS011;21297;52.008;4.576;2023-12-04T06:45:21;19.95;;;9.73;;
35120;SDS011;21297;52.008;4.576;2023-12-04T06:48:07;17.80;;;9.13;;
35120;SDS011;21297;52.008;4.576;2023-12-04T06:50:54;22.15;;;9.20;;
35120;SDS011;21297;52.008;4.576;2023-12-04T06:53:40;24.27;;;9.05;;
35120;SDS011;21297;52.008;4.576;2023-12-04T06:56:25;18.33;;;9.18;;
35120;SDS011;21297;52.008;4.576;2023-12-04T06:59:11;19.92;;;9.63;;
35120;SDS011;21297;52.008;4.576;2023-12-04T07:01:57;21.40;;;9.50;;
35120;SDS011;21297;52.008;4.576;2023-12-04T07:04:42;18.67;;;9.15;;
35120;SDS011;21297;52.008;4.576;2023-12-04T07:07:28;19.45;;;8.98;;
35120;SDS011;21297;52.008;4.576;2023-12-04T07:10:14;17.20;;;9.00;;
35120;SDS011;21297;52.008;4.576;2023-12-04T07:13:00;17.65;;;8.32;;
35120;SDS011;21297;52.008;4.576;2023-12-04T07:15:45;19.55;;;9.43;;
35120;SDS011;21297;52.008;4.576;2023-12-04T07:18:31;17.88;;;9.07;;
35120;SDS011;21297;52.008;4.576;2023-12-04T07:21:17;17.95;;;8.77;;
35120;SDS011;21297;52.008;4.576;2023-12-04T07:24:03;19.20;;;8.95;;
35120;SDS011;21297;52.008;4.576;2023-12-04T07:26:49;17.67;;;8.77;;
35120;SDS011;21297;52.008;4.576;2023-12-04T07:29:35;17.90;;;8.75;;
35120;SDS011;21297;52.008;4.576;2023-12-04T07:32:22;18.55;;;8.68;;
35120;SDS011;21297;52.008;4.576;2023-12-04T07:35:08;16.08;;;8.07;;
35120;SDS011;21297;52.008;4.576;2023-12-04T07:37:54;17.33;;;8.43;;
35120;SDS011;21297;52.008;4.576;2023-12-04T07:40:39;15.95;;;7.70;;
35120;SDS011;21297;52.008;4.576;2023-12-04T07:43:25;17.05;;;8.07;;
35120;SDS011;21297;52.008;4.576;2023-12-04T07:46:12;21.17;;;9.55;;
35120;SDS011;21297;52.008;4.576;2023-12-04T07:48:59;19.55;;;8.85;;
35120;SDS011;21297;52.008;4.576;2023-12-04T07:51:44;17.15;;;8.75;;
35120;SDS011;21297;52.008;4.576;2023-12-04T07:54:30;17.75;;;8.65;;
35120;SDS011;21297;52.008;4.576;2023-12-04T07:57:16;16.15;;;8.38;;
35120;SDS011;21297;52.008;4.576;2023-12-04T08:00:02;16.20;;;8.52;;
35120;SDS011;21297;52.008;4.576;2023-12-04T08:02:48;19.50;;;8.57;;
35120;SDS011;21297;52.008;4.576;2023-12-04T08:05:34;20.30;;;8.07;;
35120;SDS011;21297;52.008;4.576;2023-12-04T08:08:19;17.33;;;7.60;;
35120;SDS011;21297;52.008;4.576;2023-12-04T08:11:06;17.88;;;8.80;;
35120;SDS011;21297;52.008;4.576;2023-12-04T08:13:54;22.38;;;8.70;;
35120;SDS011;21297;52.008;4.576;2023-12-04T08:16:40;16.08;;;8.30;;
35120;SDS011;21297;52.008;4.576;2023-12-04T08:19:25;15.18;;;8.07;;
35120;SDS011;21297;52.008;4.576;2023-12-04T08:22:11;16.88;;;8.18;;
35120;SDS011;21297;52.008;4.576;2023-12-04T08:24:57;18.17;;;8.00;;
35120;SDS011;21297;52.008;4.576;2023-12-04T08:27:43;15.27;;;7.40;;
35120;SDS011;21297;52.008;4.576;2023-12-04T08:30:29;18.30;;;7.65;;
35120;SDS011;21297;52.008;4.576;2023-12-04T08:33:15;14.95;;;8.02;;
35120;SDS011;21297;52.008;4.576;2023-12-04T08:36:01;16.73;;;7.93;;
35120;SDS011;21297;52.008;4.576;2023-12-04T08:38:47;16.38;;;8.40;;
35120;SDS011;21297;52.008;4.576;2023-12-04T08:41:32;16.48;;;8.02;;
35120;SDS011;21297;52.008;4.576;2023-12-04T08:44:18;15.02;;;7.05;;
35120;SDS011;21297;52.008;4.576;2023-12-04T08:47:04;14.57;;;7.70;;
35120;SDS011;21297;52.008;4.576;2023-12-04T08:49:50;18.13;;;8.07;;
35120;SDS011;21297;52.008;4.576;2023-12-04T08:52:35;15.70;;;7.32;;
35120;SDS011;21297;52.008;4.576;2023-12-04T08:55:21;17.80;;;8.40;;
35120;SDS011;21297;52.008;4.576;2023-12-04T08:58:07;17.48;;;8.40;;
35120;SDS011;21297;52.008;4.576;2023-12-04T09:00:52;16.98;;;7.90;;
35120;SDS011;21297;52.008;4.576;2023-12-04T09:03:38;16.20;;;8.32;;
35120;SDS011;21297;52.008;4.576;2023-12-04T09:06:24;15.48;;;7.60;;
35120;SDS011;21297;52.008;4.576;2023-12-04T09:09:09;15.82;;;8.35;;
35120;SDS011;21297;52.008;4.576;2023-12-04T09:11:56;14.18;;;7.38;;
35120;SDS011;21297;52.008;4.576;2023-12-04T09:14:42;13.98;;;7.68;;
35120;SDS011;21297;52.008;4.576;2023-12-04T09:17:27;13.90;;;7.55;;
35120;SDS011;21297;52.008;4.576;2023-12-04T09:20:13;17.73;;;7.93;;
35120;SDS011;21297;52.008;4.576;2023-12-04T09:22:59;15.32;;;8.23;;
35120;SDS011;21297;52.008;4.576;2023-12-04T09:25:45;14.57;;;7.05;;
35120;SDS011;21297;52.008;4.576;2023-12-04T09:28:30;17.60;;;7.60;;
35120;SDS011;21297;52.008;4.576;2023-12-04T09:31:16;14.52;;;7.43;;
35120;SDS011;21297;52.008;4.576;2023-12-04T09:34:02;15.18;;;6.85;;
35120;SDS011;21297;52.008;4.576;2023-12-04T09:36:47;17.10;;;8.10;;
35120;SDS011;21297;52.008;4.576;2023-12-04T09:39:33;13.25;;;6.80;;
35120;SDS011;21297;52.008;4.576;2023-12-04T09:42:19;14.90;;;8.00;;
35120;SDS011;21297;52.008;4.576;2023-12-04T09:45:05;13.93;;;7.18;;
35120;SDS011;21297;52.008;4.576;2023-12-04T09:47:53;17.10;;;6.93;;
35120;SDS011;21297;52.008;4.576;2023-12-04T09:50:40;12.50;;;6.53;;
35120;SDS011;21297;52.008;4.576;2023-12-04T09:53:26;13.10;;;6.70;;
35120;SDS011;21297;52.008;4.576;2023-12-04T09:56:14;12.73;;;6.53;;
35120;SDS011;21297;52.008;4.576;2023-12-04T09:59:01;14.85;;;6.80;;
35120;SDS011;21297;52.008;4.576;2023-12-04T10:01:47;15.25;;;7.30;;
35120;SDS011;21297;52.008;4.576;2023-12-04T10:04:34;12.85;;;6.40;;
35120;SDS011;21297;52.008;4.576;2023-12-04T10:07:20;13.55;;;6.68;;
35120;SDS011;21297;52.008;4.576;2023-12-04T10:10:06;13.27;;;6.65;;
35120;SDS011;21297;52.008;4.576;2023-12-04T10:12:53;12.13;;;6.20;;
35120;SDS011;21297;52.008;4.576;2023-12-04T10:15:48;13.38;;;6.65;;
35120;SDS011;21297;52.008;4.576;2023-12-04T10:18:36;23.45;;;6.97;;
35120;SDS011;21297;52.008;4.576;2023-12-04T10:21:22;12.27;;;6.45;;
35120;SDS011;21297;52.008;4.576;2023-12-04T10:24:07;12.88;;;6.30;;
35120;SDS011;21297;52.008;4.576;2023-12-04T10:26:54;12.63;;;6.55;;
35120;SDS011;21297;52.008;4.576;2023-12-04T10:32:36;14.02;;;6.53;;
35120;SDS011;21297;52.008;4.576;2023-12-04T10:35:24;12.18;;;6.60;;
35120;SDS011;21297;52.008;4.576;2023-12-04T10:38:10;13.23;;;6.35;;
35120;SDS011;21297;52.008;4.576;2023-12-04T10:40:56;13.48;;;5.65;;
35120;SDS011;21297;52.008;4.576;2023-12-04T10:43:47;13.27;;;6.68;;
35120;SDS011;21297;52.008;4.576;2023-12-04T10:46:34;12.50;;;6.15;;
35120;SDS011;21297;52.008;4.576;2023-12-04T10:49:21;13.20;;;5.78;;
35120;SDS011;21297;52.008;4.576;2023-12-04T10:52:07;13.73;;;6.32;;
35120;SDS011;21297;52.008;4.576;2023-12-04T10:54:54;13.15;;;5.75;;
35120;SDS011;21297;52.008;4.576;2023-12-04T10:57:40;14.55;;;6.47;;
35120;SDS011;21297;52.008;4.576;2023-12-04T11:00:28;14.48;;;5.95;;
35120;SDS011;21297;52.008;4.576;2023-12-04T11:03:20;11.40;;;6.10;;
35120;SDS011;21297;52.008;4.576;2023-12-04T11:06:11;11.40;;;5.32;;
35120;SDS011;21297;52.008;4.576;2023-12-04T11:09:00;19.15;;;6.07;;
35120;SDS011;21297;52.008;4.576;2023-12-04T11:11:50;12.90;;;5.72;;
35120;SDS011;21297;52.008;4.576;2023-12-04T11:14:41;13.98;;;5.50;;
35120;SDS011;21297;52.008;4.576;2023-12-04T11:20:18;13.98;;;5.68;;
35120;SDS011;21297;52.008;4.576;2023-12-04T11:23:06;10.88;;;5.57;;
35120;SDS011;21297;52.008;4.576;2023-12-04T11:25:54;11.65;;;5.60;;
35120;SDS011;21297;52.008;4.576;2023-12-04T11:28:41;12.13;;;6.18;;
35120;SDS011;21297;52.008;4.576;2023-12-04T11:31:28;12.60;;;6.43;;
35120;SDS011;21297;52.008;4.576;2023-12-04T11:34:14;10.93;;;5.63;;
35120;SDS011;21297;52.008;4.576;2023-12-04T11:36:59;12.75;;;5.63;;
35120;SDS011;21297;52.008;4.576;2023-12-04T11:39:46;14.73;;;6.78;;
35120;SDS011;21297;52.008;4.576;2023-12-04T11:42:33;14.35;;;6.32;;
35120;SDS011;21297;52.008;4.576;2023-12-04T11:45:19;11.93;;;6.63;;
35120;SDS011;21297;52.008;4.576;2023-12-04T11:48:08;13.20;;;6.10;;
35120;SDS011;21297;52.008;4.576;2023-12-04T11:50:56;14.88;;;6.38;;
35120;SDS011;21297;52.008;4.576;2023-12-04T11:53:43;14.25;;;6.07;;
35120;SDS011;21297;52.008;4.576;2023-12-04T11:56:29;14.60;;;6.70;;
35120;SDS011;21297;52.008;4.576;2023-12-04T11:59:16;15.52;;;5.97;;
35120;SDS011;21297;52.008;4.576;2023-12-04T12:02:01;12.68;;;5.88;;
35120;SDS011;21297;52.008;4.576;2023-12-04T12:04:47;14.18;;;6.00;;
35120;SDS011;21297;52.008;4.576;2023-12-04T12:07:33;12.75;;;5.68;;
35120;SDS011;21297;52.008;4.576;2023-12-04T12:10:19;11.32;;;5.90;;
35120;SDS011;21297;52.008;4.576;2023-12-04T12:13:05;16.40;;;7.07;;
35120;SDS011;21297;52.008;4.576;2023-12-04T12:15:51;15.77;;;7.47;;
35120;SDS011;21297;52.008;4.576;2023-12-04T12:18:37;13.63;;;6.88;;
35120;SDS011;21297;52.008;4.576;2023-12-04T12:21:25;12.75;;;5.82;;
35120;SDS011;21297;52.008;4.576;2023-12-04T12:24:11;12.10;;;6.53;;
35120;SDS011;21297;52.008;4.576;2023-12-04T12:26:57;16.88;;;7.30;;
35120;SDS011;21297;52.008;4.576;2023-12-04T12:29:43;12.07;;;6.30;;
35120;SDS011;21297;52.008;4.576;2023-12-04T12:32:28;13.25;;;6.53;;
35120;SDS011;21297;52.008;4.576;2023-12-04T12:35:14;11.75;;;6.20;;
35120;SDS011;21297;52.008;4.576;2023-12-04T12:38:00;13.98;;;6.22;;
35120;SDS011;21297;52.008;4.576;2023-12-04T12:40:45;12.82;;;7.00;;
35120;SDS011;21297;52.008;4.576;2023-12-04T12:43:31;14.23;;;7.18;;
35120;SDS011;21297;52.008;4.576;2023-12-04T12:46:17;14.75;;;6.72;;
35120;SDS011;21297;52.008;4.576;2023-12-04T12:49:03;12.60;;;7.18;;
35120;SDS011;21297;52.008;4.576;2023-12-04T12:51:50;13.75;;;7.10;;
35120;SDS011;21297;52.008;4.576;2023-12-04T12:54:36;15.20;;;7.80;;
35120;SDS011;21297;52.008;4.576;2023-12-04T12:57:22;14.57;;;6.72;;
35120;SDS011;21297;52.008;4.576;2023-12-04T13:00:08;16.55;;;8.43;;
35120;SDS011;21297;52.008;4.576;2023-12-04T13:02:55;18.05;;;8.02;;
35120;SDS011;21297;52.008;4.576;2023-12-04T13:05:41;13.30;;;7.20;;
35120;SDS011;21297;52.008;4.576;2023-12-04T13:08:27;16.85;;;7.97;;
35120;SDS011;21297;52.008;4.576;2023-12-04T13:11:12;17.92;;;8.52;;
35120;SDS011;21297;52.008;4.576;2023-12-04T13:13:58;16.63;;;8.20;;
35120;SDS011;21297;52.008;4.576;2023-12-04T13:16:44;20.35;;;8.90;;
35120;SDS011;21297;52.008;4.576;2023-12-04T13:19:30;16.52;;;8.68;;
35120;SDS011;21297;52.008;4.576;2023-12-04T13:22:19;18.85;;;8.70;;
35120;SDS011;21297;52.008;4.576;2023-12-04T13:25:06;19.70;;;8.82;;
35120;SDS011;21297;52.008;4.576;2023-12-04T13:27:55;17.02;;;9.40;;
35120;SDS011;21297;52.008;4.576;2023-12-04T13:30:41;20.77;;;10.27;;
35120;SDS011;21297;52.008;4.576;2023-12-04T13:33:27;19.27;;;10.00;;
35120;SDS011;21297;52.008;4.576;2023-12-04T13:36:12;15.90;;;8.68;;
35120;SDS011;21297;52.008;4.576;2023-12-04T13:38:58;18.85;;;9.60;;
35120;SDS011;21297;52.008;4.576;2023-12-04T13:41:44;21.77;;;10.93;;
35120;SDS011;21297;52.008;4.576;2023-12-04T13:44:49;24.10;;;10.98;;
35120;SDS011;21297;52.008;4.576;2023-12-04T13:47:36;17.52;;;9.75;;
35120;SDS011;21297;52.008;4.576;2023-12-04T13:50:23;18.85;;;10.40;;
35120;SDS011;21297;52.008;4.576;2023-12-04T13:53:08;19.42;;;11.35;;
35120;SDS011;21297;52.008;4.576;2023-12-04T13:55:54;20.05;;;9.90;;
35120;SDS011;21297;52.008;4.576;2023-12-04T13:58:40;19.40;;;9.82;;
35120;SDS011;21297;52.008;4.576;2023-12-04T14:01:29;15.23;;;9.13;;
35120;SDS011;21297;52.008;4.576;2023-12-04T14:04:15;19.80;;;10.27;;
35120;SDS011;21297;52.008;4.576;2023-12-04T14:07:01;18.20;;;10.45;;
35120;SDS011;21297;52.008;4.576;2023-12-04T14:09:47;32.15;;;11.88;;
35120;SDS011;21297;52.008;4.576;2023-12-04T14:12:32;22.42;;;11.55;;
35120;SDS011;21297;52.008;4.576;2023-12-04T14:15:18;19.75;;;10.52;;
35120;SDS011;21297;52.008;4.576;2023-12-04T14:18:05;18.83;;;10.45;;
35120;SDS011;21297;52.008;4.576;2023-12-04T14:20:51;20.58;;;11.40;;
35120;SDS011;21297;52.008;4.576;2023-12-04T14:23:37;19.17;;;10.65;;
35120;SDS011;21297;52.008;4.576;2023-12-04T14:26:23;20.55;;;11.40;;
35120;SDS011;21297;52.008;4.576;2023-12-04T14:29:08;19.02;;;11.23;;
35120;SDS011;21297;52.008;4.576;2023-12-04T14:31:54;18.25;;;10.23;;
35120;SDS011;21297;52.008;4.576;2023-12-04T14:34:40;21.13;;;10.38;;
35120;SDS011;21297;52.008;4.576;2023-12-04T14:37:25;18.27;;;10.48;;
35120;SDS011;21297;52.008;4.576;2023-12-04T14:40:12;21.85;;;10.98;;
35120;SDS011;21297;52.008;4.576;2023-12-04T14:42:59;21.58;;;12.18;;
35120;SDS011;21297;52.008;4.576;2023-12-04T14:45:44;24.30;;;11.25;;
35120;SDS011;21297;52.008;4.576;2023-12-04T14:48:30;20.92;;;11.98;;
35120;SDS011;21297;52.008;4.576;2023-12-04T14:51:16;20.02;;;10.90;;
35120;SDS011;21297;52.008;4.576;2023-12-04T14:54:02;23.73;;;12.25;;
35120;SDS011;21297;52.008;4.576;2023-12-04T14:57:06;20.73;;;11.27;;
35120;SDS011;21297;52.008;4.576;2023-12-04T15:00:04;21.75;;;12.10;;
35120;SDS011;21297;52.008;4.576;2023-12-04T15:03:17;26.63;;;12.45;;
35120;SDS011;21297;52.008;4.576;2023-12-04T15:06:08;21.13;;;11.25;;
35120;SDS011;21297;52.008;4.576;2023-12-04T15:08:57;21.85;;;11.77;;
35120;SDS011;21297;52.008;4.576;2023-12-04T15:12:20;23.77;;;12.52;;
35120;SDS011;21297;52.008;4.576;2023-12-04T15:15:12;22.55;;;12.15;;
35120;SDS011;21297;52.008;4.576;2023-12-04T15:18:21;23.15;;;11.90;;
35120;SDS011;21297;52.008;4.576;2023-12-04T15:21:25;29.52;;;13.40;;
35120;SDS011;21297;52.008;4.576;2023-12-04T15:24:10;23.05;;;12.48;;
35120;SDS011;21297;52.008;4.576;2023-12-04T15:26:56;25.20;;;13.27;;
35120;SDS011;21297;52.008;4.576;2023-12-04T15:29:42;21.17;;;12.52;;
35120;SDS011;21297;52.008;4.576;2023-12-04T15:32:28;26.60;;;13.20;;
35120;SDS011;21297;52.008;4.576;2023-12-04T15:35:14;23.30;;;12.68;;
35120;SDS011;21297;52.008;4.576;2023-12-04T15:37:59;26.13;;;13.70;;
35120;SDS011;21297;52.008;4.576;2023-12-04T15:40:45;26.27;;;13.60;;
35120;SDS011;21297;52.008;4.576;2023-12-04T15:43:32;24.88;;;14.30;;
35120;SDS011;21297;52.008;4.576;2023-12-04T15:46:18;33.55;;;14.85;;
35120;SDS011;21297;52.008;4.576;2023-12-04T15:49:03;26.33;;;13.40;;
35120;SDS011;21297;52.008;4.576;2023-12-04T15:51:49;27.80;;;14.00;;
35120;SDS011;21297;52.008;4.576;2023-12-04T15:54:35;25.55;;;13.32;;
35120;SDS011;21297;52.008;4.576;2023-12-04T15:57:22;27.63;;;14.20;;
35120;SDS011;21297;52.008;4.576;2023-12-04T16:00:10;25.67;;;14.70;;
35120;SDS011;21297;52.008;4.576;2023-12-04T16:02:58;29.20;;;15.18;;
35120;SDS011;21297;52.008;4.576;2023-12-04T16:05:44;25.90;;;15.07;;
35120;SDS011;21297;52.008;4.576;2023-12-04T16:08:30;29.98;;;15.05;;
35120;SDS011;21297;52.008;4.576;2023-12-04T16:11:18;27.42;;;15.52;;
35120;SDS011;21297;52.008;4.576;2023-12-04T16:14:04;27.55;;;15.65;;
35120;SDS011;21297;52.008;4.576;2023-12-04T16:16:50;30.95;;;16.10;;
35120;SDS011;21297;52.008;4.576;2023-12-04T16:19:35;33.78;;;16.83;;
35120;SDS011;21297;52.008;4.576;2023-12-04T16:22:22;26.52;;;15.52;;
35120;SDS011;21297;52.008;4.576;2023-12-04T16:25:08;31.40;;;17.65;;
35120;SDS011;21297;52.008;4.576;2023-12-04T16:27:55;30.55;;;17.77;;